Time;durP1;ratioP1;P1;durP2;ratioP2;P2;SDS_P1;SDS_P2;PMS_P1;PMS_P2;Temp;Humidity;BMP_temperature;BMP_pressure;BME280_temperature;BME280_humidity;BME280_pressure;Samples;Min_cycle;Max_cycle;Signal;HPM_P1;HPM_P2
2023/09/21 03:31:59;;;;;;;2.00;1.80;;;15.80;99.90;;;;;;5598564;23;20516;-64
2023/09/21 03:34:26;;;;;;;3.57;1.73;;;15.80;99.90;;;;;;5011095;28;20545;-64
2023/09/21 03:36:53;;;;;;;2.40;2.20;;;15.80;99.90;;;;;;5013415;28;20477;-64
2023/09/21 03:39:19;;;;;;;2.33;2.13;;;15.80;99.90;;;;;;5013752;28;20465;-64
2023/09/21 03:41:46;;;;;;;2.50;2.00;;;15.80;99.90;;;;;;5007760;28;20480;-64
2023/09/21 03:44:13;;;;;;;1.80;1.50;;;15.80;99.90;;;;;;5012909;28;20474;-64
2023/09/21 03:46:39;;;;;;;2.60;2.30;;;15.70;99.90;;;;;;5013340;28;20464;-64
2023/09/21 03:49:08;;;;;;;2.00;1.63;;;15.80;99.90;;;;;;5013357;28;20473;-64
2023/09/21 03:51:35;;;;;;;2.27;2.07;;;15.70;99.90;;;;;;5013384;28;20513;-64
2023/09/21 03:54:02;;;;;;;2.60;2.40;;;15.70;99.90;;;;;;5009108;28;20523;-63
2023/09/21 03:56:28;;;;;;;6.40;2.10;;;15.70;99.90;;;;;;5013494;28;20516;-64
2023/09/21 03:58:55;;;;;;;2.13;1.87;;;15.70;99.90;;;;;;5013041;28;20517;-64
2023/09/21 04:01:22;;;;;;;2.40;1.73;;;15.70;99.90;;;;;;5013484;28;20518;-64
2023/09/21 04:03:53;;;;;;;1.93;1.73;;;15.70;99.90;;;;;;5012666;28;20471;-64
2023/09/21 04:06:21;;;;;;;3.20;1.83;;;15.70;99.90;;;;;;5005859;28;20459;-63
2023/09/21 04:08:48;;;;;;;3.47;2.20;;;15.70;99.90;;;;;;5012970;28;20464;-64
2023/09/21 04:11:14;;;;;;;2.30;1.63;;;15.70;99.90;;;;;;5012986;28;20482;-64
2023/09/21 04:13:41;;;;;;;2.93;2.47;;;15.70;99.90;;;;;;5012645;28;20549;-64
2023/09/21 04:16:08;;;;;;;2.37;1.80;;;15.70;99.90;;;;;;5012994;28;20464;-64
2023/09/21 04:18:35;;;;;;;3.73;2.30;;;15.70;99.90;;;;;;5005610;28;20961;-64
2023/09/21 04:21:07;;;;;;;4.03;1.90;;;15.70;99.90;;;;;;5010834;28;20478;-64
2023/09/21 04:23:35;;;;;;;2.03;1.83;;;15.70;99.90;;;;;;5012650;28;20478;-65
2023/09/21 04:26:01;;;;;;;2.40;2.20;;;15.70;99.90;;;;;;5012761;28;20940;-64
2023/09/21 04:28:28;;;;;;;2.30;2.00;;;15.70;99.90;;;;;;5012901;28;20466;-65
2023/09/21 04:30:55;;;;;;;1.93;1.80;;;15.70;99.90;;;;;;5010396;28;20482;-65
2023/09/21 04:33:23;;;;;;;2.27;2.00;;;15.70;99.90;;;;;;5012366;28;20498;-65
2023/09/21 04:35:49;;;;;;;2.60;2.40;;;15.70;99.90;;;;;;5010559;28;20521;-65
2023/09/21 04:38:17;;;;;;;2.37;2.10;;;15.70;99.90;;;;;;5012918;28;20454;-65
2023/09/21 04:40:46;;;;;;;2.80;2.00;;;15.70;99.90;;;;;;5012372;28;20854;-65
2023/09/21 04:43:16;;;;;;;2.30;1.87;;;15.70;99.90;;;;;;5011948;28;20456;-65
2023/09/21 04:45:42;;;;;;;3.40;2.10;;;15.70;99.90;;;;;;5010592;28;20457;-65
2023/09/21 04:48:09;;;;;;;2.20;2.00;;;15.70;99.90;;;;;;5012328;28;20475;-65
2023/09/21 04:50:36;;;;;;;2.00;1.83;;;15.70;99.90;;;;;;5008990;28;20851;-65
2023/09/21 04:53:03;;;;;;;2.30;2.10;;;15.70;99.90;;;;;;5009699;28;20490;-65
2023/09/21 04:55:31;;;;;;;2.70;2.07;;;15.70;99.90;;;;;;5012539;28;20468;-65
2023/09/21 04:57:59;;;;;;;3.07;1.63;;;15.70;99.90;;;;;;5010350;28;20463;-65
2023/09/21 05:00:26;;;;;;;2.90;2.03;;;15.70;99.90;;;;;;5012306;28;20473;-65
2023/09/21 05:02:53;;;;;;;2.30;2.10;;;15.70;99.90;;;;;;5009604;28;20462;-64
2023/09/21 05:05:20;;;;;;;4.70;2.17;;;15.70;99.90;;;;;;5008512;28;20209;-64
2023/09/21 05:07:46;;;;;;;2.50;2.00;;;15.70;99.90;;;;;;5010555;28;20459;-64
2023/09/21 05:10:13;;;;;;;2.10;1.77;;;15.70;99.90;;;;;;5012013;28;20471;-64
2023/09/21 05:12:40;;;;;;;2.33;2.13;;;15.70;99.90;;;;;;5011971;28;20497;-64
2023/09/21 05:15:11;;;;;;;4.10;2.23;;;15.70;99.90;;;;;;5008319;28;20526;-64
2023/09/21 05:17:38;;;;;;;2.10;1.87;;;15.70;99.90;;;;;;5010572;28;20489;-64
2023/09/21 05:20:06;;;;;;;3.00;2.07;;;15.70;99.90;;;;;;5010198;28;20831;-64
2023/09/21 05:22:33;;;;;;;3.20;2.10;;;15.80;99.90;;;;;;5011984;28;20479;-64
2023/09/21 05:25:00;;;;;;;2.80;2.17;;;15.80;99.90;;;;;;5011043;28;20465;-64
2023/09/21 05:27:29;;;;;;;4.13;1.73;;;15.80;99.90;;;;;;5011843;28;20548;-64
2023/09/21 05:29:57;;;;;;;3.83;1.80;;;15.90;99.90;;;;;;5011308;28;20472;-64
2023/09/21 05:32:26;;;;;;;2.20;2.00;;;15.90;99.90;;;;;;5011483;28;20496;-65
2023/09/21 05:34:53;;;;;;;3.17;2.03;;;16.00;99.90;;;;;;5007189;28;20556;-64
2023/09/21 05:37:20;;;;;;;2.13;1.93;;;16.00;99.90;;;;;;5010537;28;20480;-64
2023/09/21 05:39:48;;;;;;;3.40;2.20;;;16.00;99.90;;;;;;5008825;28;20467;-64
2023/09/21 05:42:15;;;;;;;2.87;2.20;;;16.10;99.90;;;;;;5006461;28;20751;-64
2023/09/21 05:44:42;;;;;;;1.83;1.67;;;16.10;99.90;;;;;;5005304;28;20469;-64
2023/09/21 05:47:09;;;;;;;2.70;2.50;;;16.10;99.90;;;;;;5006598;28;20456;-64
2023/09/21 05:49:37;;;;;;;2.50;2.10;;;16.10;99.90;;;;;;5007969;28;20463;-65
2023/09/21 05:52:08;;;;;;;2.17;1.93;;;16.10;99.90;;;;;;5001328;28;20527;-64
2023/09/21 05:54:35;;;;;;;2.30;2.10;;;16.10;99.90;;;;;;5006420;28;20556;-65
2023/09/21 05:57:03;;;;;;;2.43;2.00;;;16.10;99.90;;;;;;5005984;28;20459;-65
2023/09/21 05:59:31;;;;;;;3.33;2.00;;;16.10;99.90;;;;;;5007679;28;20463;-65
2023/09/21 06:01:59;;;;;;;5.30;2.27;;;16.10;99.90;;;;;;5007273;28;20808;-64
2023/09/21 06:04:27;;;;;;;2.30;2.10;;;16.10;99.90;;;;;;5007005;28;20562;-65
2023/09/21 06:06:58;;;;;;;2.40;2.20;;;16.10;99.90;;;;;;5007384;28;20849;-64
2023/09/21 06:09:25;;;;;;;2.50;2.10;;;16.10;99.90;;;;;;5007507;28;20528;-64
2023/09/21 06:11:52;;;;;;;2.40;2.20;;;16.20;99.90;;;;;;5006541;28;20573;-64
2023/09/21 06:14:20;;;;;;;2.37;2.17;;;16.20;99.90;;;;;;4999723;28;20469;-64
2023/09/21 06:16:47;;;;;;;2.43;2.00;;;16.20;99.90;;;;;;5006822;28;20514;-65
2023/09/21 06:19:15;;;;;;;3.17;2.33;;;16.20;99.90;;;;;;5006751;28;20470;-65
2023/09/21 06:21:42;;;;;;;2.40;2.20;;;16.20;99.90;;;;;;5007207;28;20483;-64
2023/09/21 06:24:12;;;;;;;2.50;1.53;;;16.20;99.90;;;;;;5006393;28;20472;-64
2023/09/21 06:26:39;;;;;;;2.30;2.10;;;16.20;99.90;;;;;;5010493;28;20462;-64
2023/09/21 06:29:06;;;;;;;2.60;2.40;;;16.30;99.90;;;;;;5008968;28;20464;-64
2023/09/21 06:31:33;;;;;;;1.90;1.80;;;16.30;99.90;;;;;;5009657;28;20861;-64
2023/09/21 06:34:01;;;;;;;2.10;1.83;;;16.40;99.90;;;;;;5009740;28;20513;-64
2023/09/21 06:36:29;;;;;;;2.63;2.40;;;16.50;99.90;;;;;;5010864;28;20465;-64
2023/09/21 06:38:57;;;;;;;3.10;1.83;;;16.50;99.90;;;;;;5010098;28;20464;-64
2023/09/21 06:41:25;;;;;;;2.77;2.30;;;16.60;99.90;;;;;;5010850;28;20889;-64
2023/09/21 06:43:53;;;;;;;2.40;2.20;;;16.70;99.90;;;;;;5009755;28;20465;-64
2023/09/21 06:46:19;;;;;;;3.20;2.40;;;16.80;99.90;;;;;;5002923;28;20471;-64
2023/09/21 06:48:46;;;;;;;3.50;2.37;;;16.80;99.90;;;;;;5010899;28;20843;-65
2023/09/21 06:51:13;;;;;;;3.20;2.13;;;16.90;99.90;;;;;;5009210;28;20496;-64
2023/09/21 06:53:40;;;;;;;3.07;2.57;;;16.90;99.90;;;;;;5003315;28;20839;-64
2023/09/21 06:56:06;;;;;;;2.30;2.10;;;16.90;99.90;;;;;;5009890;28;20471;-64
2023/09/21 06:58:35;;;;;;;2.63;2.43;;;16.90;99.90;;;;;;5010151;28;20472;-64
2023/09/21 07:01:02;;;;;;;2.70;2.10;;;17.00;99.90;;;;;;5009619;28;20887;-65
2023/09/21 07:03:29;;;;;;;2.57;2.23;;;17.10;99.90;;;;;;5009988;28;20547;-65
2023/09/21 07:05:56;;;;;;;5.13;1.90;;;17.10;99.90;;;;;;5009678;28;20480;-64
2023/09/21 07:08:22;;;;;;;2.50;2.30;;;17.20;99.90;;;;;;5010351;28;20468;-64
2023/09/21 07:10:49;;;;;;;3.30;2.13;;;17.30;99.90;;;;;;5010329;28;21036;-65
2023/09/21 07:13:18;;;;;;;3.47;2.30;;;17.30;99.90;;;;;;5009309;28;20541;-64
2023/09/21 07:15:47;;;;;;;2.83;2.47;;;17.40;99.90;;;;;;5010733;28;21023;-64
2023/09/21 07:18:14;;;;;;;1.90;1.80;;;17.50;99.90;;;;;;5002147;28;20986;-64
2023/09/21 07:20:41;;;;;;;2.73;2.30;;;17.60;99.90;;;;;;5010418;28;20556;-64
2023/09/21 07:23:08;;;;;;;2.83;2.40;;;17.70;99.90;;;;;;5001855;28;20465;-64
2023/09/21 07:25:35;;;;;;;2.27;2.07;;;17.90;99.90;;;;;;5010418;28;20479;-64
2023/09/21 07:28:02;;;;;;;3.80;2.30;;;18.00;99.90;;;;;;5003194;28;20472;-64
2023/09/21 07:30:31;;;;;;;4.03;2.47;;;18.20;99.90;;;;;;5013403;28;20469;-64
2023/09/21 07:33:00;;;;;;;4.10;2.27;;;18.30;99.90;;;;;;5005746;28;20517;-65
2023/09/21 07:35:27;;;;;;;3.10;1.87;;;18.40;99.90;;;;;;5005756;28;20973;-65
2023/09/21 07:37:54;;;;;;;3.30;2.17;;;18.30;99.90;;;;;;5006668;28;20470;-65
2023/09/21 07:40:22;;;;;;;2.07;1.87;;;18.40;99.90;;;;;;5013458;28;20553;-64
2023/09/21 07:42:50;;;;;;;2.97;2.70;;;18.40;99.90;;;;;;4998832;28;20557;-64
2023/09/21 07:45:18;;;;;;;3.07;2.10;;;18.40;99.90;;;;;;5012250;28;20820;-65
2023/09/21 07:47:45;;;;;;;2.10;1.93;;;18.40;99.90;;;;;;5007107;28;20465;-65
2023/09/21 07:50:13;;;;;;;2.30;2.07;;;18.50;99.90;;;;;;5010736;28;21383;-65
2023/09/21 07:52:40;;;;;;;2.30;2.10;;;18.50;99.90;;;;;;5002480;28;20587;-65
2023/09/21 07:55:09;;;;;;;2.47;1.90;;;18.60;99.90;;;;;;5011183;28;20475;-65
2023/09/21 07:57:37;;;;;;;1.90;1.80;;;18.70;99.90;;;;;;5001957;28;20565;-64
2023/09/21 08:00:06;;;;;;;2.20;2.00;;;18.80;99.90;;;;;;5012742;28;20469;-65
2023/09/21 08:02:33;;;;;;;2.33;2.13;;;19.10;99.90;;;;;;5012896;28;20564;-64
2023/09/21 08:04:59;;;;;;;2.37;2.17;;;19.50;99.90;;;;;;5012757;28;20466;-64
2023/09/21 08:07:27;;;;;;;2.30;2.00;;;19.90;99.90;;;;;;5013242;28;20461;-65
2023/09/21 08:09:55;;;;;;;2.37;2.17;;;20.20;99.90;;;;;;5006606;28;20831;-64
2023/09/21 08:12:22;;;;;;;3.50;2.20;;;20.30;99.90;;;;;;5012780;28;20535;-65
2023/09/21 08:14:48;;;;;;;3.40;2.13;;;20.40;99.90;;;;;;5012601;28;20482;-65
2023/09/21 08:17:15;;;;;;;2.20;2.00;;;20.40;99.90;;;;;;5005647;28;20852;-65
2023/09/21 08:19:42;;;;;;;2.30;1.93;;;20.40;99.90;;;;;;5000239;28;20466;-65
2023/09/21 08:22:09;;;;;;;3.77;2.07;;;20.30;99.90;;;;;;5004285;28;20482;-64
2023/09/21 08:24:37;;;;;;;2.17;1.97;;;20.20;99.90;;;;;;5005346;28;20459;-65
2023/09/21 08:27:03;;;;;;;1.93;1.80;;;20.20;99.90;;;;;;5005568;28;21034;-64
2023/09/21 08:29:30;;;;;;;2.87;2.07;;;20.10;99.90;;;;;;5012667;28;20464;-64
2023/09/21 08:31:57;;;;;;;1.90;1.80;;;20.10;99.90;;;;;;5012683;28;20865;-65
2023/09/21 08:34:24;;;;;;;1.90;1.73;;;20.10;99.90;;;;;;5011852;28;20485;-65
2023/09/21 08:36:51;;;;;;;2.03;1.53;;;20.20;99.90;;;;;;5012793;28;20474;-65
2023/09/21 08:39:18;;;;;;;2.07;1.77;;;20.30;99.90;;;;;;5003950;28;20455;-65
2023/09/21 08:41:49;;;;;;;2.10;1.77;;;20.50;99.90;;;;;;4999925;28;20480;-64
2023/09/21 08:44:17;;;;;;;2.03;1.30;;;20.70;99.90;;;;;;5004844;28;20516;-64
2023/09/21 08:46:46;;;;;;;2.20;2.00;;;20.80;99.90;;;;;;5012699;28;20463;-65
2023/09/21 08:49:14;;;;;;;2.67;1.70;;;20.80;99.90;;;;;;5010824;28;20675;-65
2023/09/21 08:51:42;;;;;;;2.30;1.90;;;20.80;99.90;;;;;;5002266;28;20488;-65
2023/09/21 08:54:10;;;;;;;2.53;2.07;;;20.80;99.90;;;;;;4997026;28;20587;-64
2023/09/21 08:56:37;;;;;;;2.60;1.83;;;20.90;99.90;;;;;;5007953;28;20490;-65
2023/09/21 08:59:06;;;;;;;1.90;1.70;;;21.00;99.90;;;;;;4996753;28;20471;-64
2023/09/21 09:01:33;;;;;;;1.70;1.60;;;21.10;99.90;;;;;;5005341;28;20566;-65
2023/09/21 09:04:00;;;;;;;1.40;1.30;;;21.20;99.90;;;;;;5005024;28;20459;-65
2023/09/21 09:06:28;;;;;;;1.83;1.70;;;21.30;99.90;;;;;;4995814;28;20476;-65
2023/09/21 09:08:56;;;;;;;2.37;2.03;;;21.30;99.90;;;;;;5002601;28;20476;-65
2023/09/21 09:11:42;;;;;;;2.73;1.63;;;21.40;99.90;;;;;;5011713;28;20481;-65
2023/09/21 09:14:16;;;;;;;2.47;2.00;;;21.40;99.90;;;;;;5011132;28;20583;-65
2023/09/21 09:16:44;;;;;;;2.80;2.23;;;21.60;99.90;;;;;;5005639;28;20504;-65
2023/09/21 09:19:11;;;;;;;1.73;1.50;;;21.70;99.90;;;;;;5004451;28;20466;-64
2023/09/21 09:21:38;;;;;;;2.50;1.90;;;21.70;99.90;;;;;;5000188;28;20481;-65
2023/09/21 09:24:08;;;;;;;3.00;2.20;;;21.90;99.90;;;;;;5004941;28;20548;-65
2023/09/21 09:26:35;;;;;;;2.40;2.00;;;22.00;99.90;;;;;;5011789;28;20471;-65
2023/09/21 09:29:06;;;;;;;2.77;1.93;;;22.20;99.90;;;;;;5011741;28;20468;-64
2023/09/21 09:31:37;;;;;;;2.30;1.87;;;22.30;99.90;;;;;;5011610;28;20496;-65
2023/09/21 09:34:04;;;;;;;1.70;1.60;;;22.50;99.90;;;;;;5004628;28;20485;-64
2023/09/21 09:36:33;;;;;;;1.47;1.37;;;22.60;99.90;;;;;;5011493;28;20469;-64
2023/09/21 09:39:00;;;;;;;2.00;1.60;;;22.70;99.90;;;;;;5011550;28;20468;-64
2023/09/21 09:41:27;;;;;;;1.90;1.80;;;22.70;99.90;;;;;;5005050;28;20485;-65
2023/09/21 09:43:59;;;;;;;2.30;2.10;;;22.80;99.90;;;;;;5004934;28;20454;-64
2023/09/21 09:46:27;;;;;;;2.40;2.20;;;22.90;99.90;;;;;;5005324;28;20469;-64
2023/09/21 09:49:02;;;;;;;2.17;1.80;;;23.00;99.90;;;;;;5011289;28;20965;-65
2023/09/21 09:51:40;;;;;;;2.60;2.40;;;23.10;99.90;;;;;;5002259;28;20851;-64
2023/09/21 09:54:09;;;;;;;2.50;2.03;;;23.20;99.90;;;;;;5009425;28;20576;-64
2023/09/21 09:56:41;;;;;;;2.03;1.77;;;23.30;99.90;;;;;;5011551;28;20469;-65
2023/09/21 09:59:09;;;;;;;2.10;1.80;;;23.30;99.90;;;;;;5011260;28;20465;-65
2023/09/21 10:01:39;;;;;;;1.80;1.70;;;23.30;99.90;;;;;;5007482;28;20861;-65
2023/09/21 10:04:08;;;;;;;2.37;1.87;;;23.10;99.90;;;;;;5008966;28;20458;-65
2023/09/21 10:06:36;;;;;;;2.33;1.70;;;23.00;99.90;;;;;;5011208;28;20468;-65
2023/09/21 10:09:10;;;;;;;1.40;1.30;;;23.00;99.90;;;;;;5011159;28;20544;-65
2023/09/21 10:11:39;;;;;;;1.80;1.47;;;23.00;99.90;;;;;;5011057;28;20493;-65
2023/09/21 10:14:11;;;;;;;2.00;1.70;;;23.00;99.90;;;;;;5010383;28;20489;-65
2023/09/21 10:16:38;;;;;;;1.60;1.50;;;22.90;99.90;;;;;;5011207;28;20457;-65
2023/09/21 10:19:15;;;;;;;1.80;1.57;;;22.80;99.90;;;;;;5005459;28;20524;-65
2023/09/21 10:21:43;;;;;;;2.00;1.73;;;22.80;99.90;;;;;;5010855;28;20488;-65
2023/09/21 10:24:18;;;;;;;1.73;1.63;;;22.80;99.90;;;;;;5010406;28;20500;-65
2023/09/21 10:26:49;;;;;;;2.00;1.53;;;22.80;99.90;;;;;;5011241;28;20876;-65
2023/09/21 10:29:20;;;;;;;1.80;1.70;;;22.80;99.90;;;;;;5004962;28;21033;-65
2023/09/21 10:31:55;;;;;;;2.40;1.90;;;23.00;99.90;;;;;;5010830;28;20485;-65
2023/09/21 10:34:26;;;;;;;1.40;1.27;;;23.10;99.90;;;;;;4997317;28;20489;-65
2023/09/21 10:36:56;;;;;;;1.70;1.60;;;23.30;99.90;;;;;;5010924;28;20501;-65
2023/09/21 10:39:29;;;;;;;1.87;1.60;;;23.40;99.90;;;;;;5010658;28;20470;-65
2023/09/21 10:42:17;;;;;;;1.70;1.50;;;23.70;99.90;;;;;;5010826;28;20481;-65
2023/09/21 10:44:59;;;;;;;1.60;1.40;;;24.00;99.90;;;;;;5010252;28;21020;-65
2023/09/21 10:47:29;;;;;;;1.80;1.70;;;24.30;99.90;;;;;;5001985;28;20496;-65
2023/09/21 10:49:59;;;;;;;1.90;1.47;;;24.30;99.90;;;;;;5007825;28;20461;-65
2023/09/21 10:52:28;;;;;;;2.00;1.70;;;24.40;99.90;;;;;;5010399;28;20488;-65
2023/09/21 10:54:55;;;;;;;1.90;1.70;;;24.40;99.90;;;;;;5010176;28;20481;-65
2023/09/21 10:57:26;;;;;;;2.20;1.83;;;24.40;99.90;;;;;;4998984;28;20508;-64
2023/09/21 10:59:53;;;;;;;1.30;1.20;;;24.40;99.90;;;;;;5002366;28;20458;-64
2023/09/21 11:02:21;;;;;;;1.73;1.33;;;24.40;99.90;;;;;;5006878;28;20484;-64
2023/09/21 11:04:49;;;;;;;1.73;1.47;;;24.40;99.90;;;;;;5009498;28;20461;-65
2023/09/21 11:07:17;;;;;;;1.47;1.37;;;24.40;99.90;;;;;;5008460;28;20476;-65
2023/09/21 11:09:45;;;;;;;2.10;1.40;;;24.40;99.90;;;;;;5014260;28;20556;-65
2023/09/21 11:12:13;;;;;;;1.90;1.20;;;24.50;99.90;;;;;;5008473;28;20473;-64
2023/09/21 11:14:42;;;;;;;2.60;1.50;;;24.60;99.90;;;;;;5008246;28;20493;-65
2023/09/21 11:17:11;;;;;;;1.67;1.57;;;24.70;99.90;;;;;;5003765;28;21021;-64
2023/09/21 11:19:38;;;;;;;1.57;1.37;;;24.70;99.90;;;;;;5010945;28;20478;-64
2023/09/21 11:22:06;;;;;;;1.73;1.53;;;24.70;99.90;;;;;;5002039;28;20492;-65
2023/09/21 11:24:36;;;;;;;2.03;1.77;;;24.70;99.90;;;;;;5013239;28;20887;-65
2023/09/21 11:27:06;;;;;;;1.87;1.77;;;24.70;99.90;;;;;;5003874;28;20557;-65
2023/09/21 11:29:33;;;;;;;2.00;1.80;;;24.60;99.90;;;;;;5006573;28;20465;-65
2023/09/21 11:32:00;;;;;;;1.60;1.50;;;24.50;99.90;;;;;;5010622;28;20521;-64
2023/09/21 11:34:29;;;;;;;2.70;1.70;;;24.30;99.90;;;;;;5012748;28;20496;-65
2023/09/21 11:36:55;;;;;;;1.70;1.50;;;24.30;99.90;;;;;;5008912;28;20661;-65
2023/09/21 11:39:29;;;;;;;1.83;1.50;;;24.20;99.90;;;;;;5013399;28;20473;-65
2023/09/21 11:41:57;;;;;;;2.57;1.60;;;24.10;99.90;;;;;;5008532;28;20497;-65
2023/09/21 11:44:28;;;;;;;1.77;1.50;;;24.10;99.90;;;;;;5007020;28;20465;-64
2023/09/21 11:46:58;;;;;;;2.00;1.67;;;24.10;99.90;;;;;;5008453;28;20524;-65
2023/09/21 11:49:35;;;;;;;3.73;1.70;;;24.10;99.90;;;;;;5013124;28;20481;-65
2023/09/21 11:52:03;;;;;;;2.00;1.77;;;24.20;99.90;;;;;;5003291;28;20485;-65
2023/09/21 11:54:30;;;;;;;2.10;1.93;;;24.10;99.90;;;;;;5010304;28;20489;-65
2023/09/21 11:57:00;;;;;;;1.67;1.57;;;24.00;99.90;;;;;;5004431;28;20466;-65
2023/09/21 11:59:27;;;;;;;1.43;1.30;;;24.10;99.90;;;;;;5012845;28;20475;-65
2023/09/21 12:01:56;;;;;;;1.50;1.37;;;24.10;99.90;;;;;;5004220;28;21018;-65
2023/09/21 12:04:24;;;;;;;1.30;1.20;;;24.20;99.90;;;;;;5008342;28;20465;-65
2023/09/21 12:06:51;;;;;;;1.80;1.70;;;24.20;99.90;;;;;;5008873;28;20505;-65
2023/09/21 12:09:18;;;;;;;1.53;1.33;;;24.20;99.90;;;;;;5004629;28;20461;-65
2023/09/21 12:11:46;;;;;;;2.00;1.80;;;24.30;99.90;;;;;;5008780;28;20523;-65
2023/09/21 12:14:14;;;;;;;2.40;1.60;;;24.40;99.90;;;;;;5011595;28;20502;-65
2023/09/21 12:16:41;;;;;;;1.70;1.60;;;24.60;99.90;;;;;;5003954;28;20462;-65
2023/09/21 12:19:08;;;;;;;2.20;1.70;;;24.80;99.90;;;;;;5008837;28;20472;-65
2023/09/21 12:21:35;;;;;;;2.10;1.40;;;25.10;99.90;;;;;;5002608;28;20537;-65
2023/09/21 12:24:02;;;;;;;1.83;1.57;;;25.20;99.90;;;;;;5005820;28;20553;-65
2023/09/21 12:26:29;;;;;;;1.67;1.57;;;25.20;99.90;;;;;;5009323;28;20502;-65
2023/09/21 12:28:56;;;;;;;2.03;1.83;;;25.30;99.90;;;;;;5008473;28;20481;-65
2023/09/21 12:31:25;;;;;;;1.50;1.40;;;25.50;99.90;;;;;;5008451;28;21001;-65
2023/09/21 12:33:52;;;;;;;2.03;1.83;;;25.60;99.90;;;;;;5004489;28;20921;-65
2023/09/21 12:36:18;;;;;;;1.90;1.70;;;25.60;99.90;;;;;;5002096;28;20457;-65
2023/09/21 12:38:45;;;;;;;1.83;1.50;;;25.80;99.90;;;;;;5012213;28;20473;-65
2023/09/21 12:41:13;;;;;;;1.87;1.77;;;25.90;99.90;;;;;;5010181;28;20482;-65
2023/09/21 12:43:42;;;;;;;1.80;1.40;;;25.90;99.90;;;;;;5007630;28;20465;-65
2023/09/21 12:46:09;;;;;;;1.70;1.60;;;26.00;99.90;;;;;;5006701;28;20470;-65
2023/09/21 12:48:38;;;;;;;1.70;1.60;;;26.10;99.90;;;;;;5011795;28;20469;-65
2023/09/21 12:51:05;;;;;;;2.20;1.70;;;26.10;99.90;;;;;;5010419;28;20482;-65
2023/09/21 12:53:31;;;;;;;2.27;1.63;;;26.00;99.90;;;;;;5011307;28;20461;-65
2023/09/21 12:55:58;;;;;;;1.33;1.23;;;25.90;99.90;;;;;;5011850;28;20484;-65
2023/09/21 12:58:25;;;;;;;1.60;1.50;;;25.80;99.90;;;;;;5012219;28;20475;-65
2023/09/21 13:00:52;;;;;;;3.23;1.70;;;25.80;99.90;;;;;;5012192;28;20568;-65
2023/09/21 13:03:19;;;;;;;3.30;2.00;;;25.70;99.90;;;;;;5007215;28;20954;-65
2023/09/21 13:05:47;;;;;;;1.80;1.50;;;25.70;99.90;;;;;;5011889;28;20952;-65
2023/09/21 13:08:16;;;;;;;1.97;1.33;;;25.80;99.90;;;;;;5008542;28;20464;-65
2023/09/21 13:10:43;;;;;;;1.70;1.60;;;25.90;99.90;;;;;;5008397;28;20509;-65
2023/09/21 13:13:10;;;;;;;3.63;1.50;;;26.20;99.90;;;;;;5011443;28;20461;-65
2023/09/21 13:15:37;;;;;;;1.60;1.43;;;26.40;99.90;;;;;;5007993;28;20493;-65
2023/09/21 13:18:04;;;;;;;1.50;1.40;;;26.60;99.90;;;;;;5011851;28;20489;-65
2023/09/21 13:20:31;;;;;;;2.00;1.67;;;26.70;99.90;;;;;;5007502;28;20958;-65
2023/09/21 13:22:59;;;;;;;1.50;1.30;;;26.60;99.90;;;;;;5008848;28;20480;-65
2023/09/21 13:25:27;;;;;;;1.90;1.80;;;26.50;99.90;;;;;;5008652;28;20889;-65
2023/09/21 13:27:54;;;;;;;1.63;1.50;;;26.30;99.90;;;;;;5008026;28;20462;-65
2023/09/21 13:30:21;;;;;;;1.37;1.27;;;26.20;99.90;;;;;;5005518;28;20471;-65
2023/09/21 13:32:49;;;;;;;1.60;1.50;;;26.20;99.90;;;;;;5008825;28;20466;-65
2023/09/21 13:35:17;;;;;;;1.57;1.47;;;26.30;99.90;;;;;;5007994;28;20510;-65
2023/09/21 13:37:43;;;;;;;1.70;1.60;;;26.30;99.90;;;;;;5008358;28;20468;-65
2023/09/21 13:40:13;;;;;;;2.80;1.50;;;26.30;99.90;;;;;;5008596;28;20936;-65
2023/09/21 13:42:40;;;;;;;1.50;1.40;;;26.20;99.90;;;;;;5007182;28;20552;-65
2023/09/21 13:45:08;;;;;;;1.53;1.43;;;26.20;99.90;;;;;;5003786;28;20462;-65
2023/09/21 13:47:35;;;;;;;2.40;1.40;;;26.30;99.90;;;;;;5008632;28;20464;-65
2023/09/21 13:50:02;;;;;;;1.80;1.40;;;26.30;99.90;;;;;;5011594;28;20461;-65
2023/09/21 13:52:29;;;;;;;2.77;1.60;;;26.40;99.90;;;;;;5008506;28;20489;-65
2023/09/21 13:54:56;;;;;;;1.50;1.40;;;26.30;99.90;;;;;;5010533;28;20503;-65
2023/09/21 13:57:29;;;;;;;1.73;1.60;;;26.20;99.90;;;;;;5008725;28;20491;-65
2023/09/21 13:59:56;;;;;;;1.80;1.60;;;26.00;99.90;;;;;;5010975;28;20461;-65
2023/09/21 14:02:23;;;;;;;1.73;1.63;;;26.00;99.90;;;;;;5008486;28;20481;-65
2023/09/21 14:04:51;;;;;;;1.70;1.60;;;25.90;99.90;;;;;;5008126;28;20466;-65
2023/09/21 14:07:18;;;;;;;1.40;1.30;;;25.80;99.90;;;;;;5003291;28;20500;-65
2023/09/21 14:09:45;;;;;;;1.47;1.37;;;25.70;99.90;;;;;;5009488;28;20968;-65
2023/09/21 14:12:12;;;;;;;1.80;1.63;;;25.60;99.90;;;;;;5007731;28;20532;-65
2023/09/21 14:14:40;;;;;;;1.93;1.83;;;25.50;99.90;;;;;;5005283;28;20489;-65
2023/09/21 14:17:06;;;;;;;1.87;1.77;;;25.40;99.90;;;;;;5006073;28;20488;-65
2023/09/21 14:19:33;;;;;;;1.63;1.53;;;25.30;99.90;;;;;;5006215;28;20540;-64
2023/09/21 14:22:01;;;;;;;3.03;1.57;;;25.20;99.90;;;;;;5008125;28;21074;-64
2023/09/21 14:24:27;;;;;;;1.77;1.67;;;25.20;99.90;;;;;;5007899;28;20472;-65
2023/09/21 14:26:54;;;;;;;1.60;1.37;;;25.10;99.90;;;;;;5003285;28;20465;-65
2023/09/21 14:29:21;;;;;;;1.70;1.50;;;25.10;99.90;;;;;;5006065;28;20560;-65
2023/09/21 14:31:50;;;;;;;1.43;1.33;;;25.00;99.90;;;;;;5009989;28;20941;-65
2023/09/21 14:34:17;;;;;;;1.63;1.53;;;24.90;99.90;;;;;;5007181;28;20541;-65
2023/09/21 14:36:45;;;;;;;1.40;1.30;;;24.90;99.90;;;;;;5005562;28;20496;-65
2023/09/21 14:39:12;;;;;;;2.50;1.90;;;24.80;99.90;;;;;;5008736;28;20898;-65
2023/09/21 14:41:39;;;;;;;2.00;1.80;;;24.90;99.90;;;;;;5013992;28;20577;-65
2023/09/21 14:44:06;;;;;;;3.20;1.50;;;24.90;99.90;;;;;;5004059;28;20470;-65
2023/09/21 14:46:33;;;;;;;2.10;1.90;;;24.90;99.90;;;;;;5012558;28;20547;-64
2023/09/21 14:49:01;;;;;;;1.97;1.50;;;24.90;99.90;;;;;;5014352;28;20465;-65
2023/09/21 14:51:28;;;;;;;1.60;1.50;;;24.80;99.90;;;;;;5014689;28;20492;-65
2023/09/21 14:53:55;;;;;;;2.07;1.87;;;24.70;99.90;;;;;;5013722;28;20483;-65
2023/09/21 14:56:21;;;;;;;2.13;1.43;;;24.60;99.90;;;;;;5012175;28;20832;-65
2023/09/21 14:58:48;;;;;;;2.10;1.73;;;24.60;99.90;;;;;;5012788;28;20493;-64
2023/09/21 15:01:15;;;;;;;1.60;1.50;;;24.50;99.90;;;;;;5011430;28;20489;-65
2023/09/21 15:03:42;;;;;;;1.50;1.40;;;24.50;99.90;;;;;;5012943;28;20468;-64
2023/09/21 15:06:10;;;;;;;1.87;1.50;;;24.40;99.90;;;;;;5009516;28;20501;-64
2023/09/21 15:08:38;;;;;;;2.00;1.70;;;24.40;99.90;;;;;;5013818;28;21010;-65
2023/09/21 15:11:05;;;;;;;2.00;1.80;;;24.30;99.90;;;;;;5009730;28;20489;-65
2023/09/21 15:13:32;;;;;;;2.13;1.60;;;24.20;99.90;;;;;;5013278;28;20846;-65
2023/09/21 15:15:59;;;;;;;1.93;1.70;;;24.20;99.90;;;;;;5011447;28;20563;-65
2023/09/21 15:18:26;;;;;;;2.03;1.60;;;24.20;99.90;;;;;;5012070;28;20492;-65
2023/09/21 15:20:52;;;;;;;1.50;1.40;;;24.10;99.90;;;;;;5013233;28;21089;-65
2023/09/21 15:23:21;;;;;;;2.17;1.80;;;24.10;99.90;;;;;;5003822;28;20468;-65
2023/09/21 15:25:48;;;;;;;3.13;1.93;;;24.10;99.90;;;;;;5003266;28;20461;-65
2023/09/21 15:28:15;;;;;;;2.33;1.77;;;24.00;99.90;;;;;;5011467;28;20989;-65
2023/09/21 15:30:41;;;;;;;1.50;1.40;;;24.00;99.90;;;;;;5012975;28;20564;-65
2023/09/21 15:33:08;;;;;;;1.67;1.57;;;23.90;99.90;;;;;;5012746;28;20471;-65
2023/09/21 15:35:35;;;;;;;1.90;1.60;;;23.90;99.90;;;;;;5011966;28;20485;-65
2023/09/21 15:38:03;;;;;;;1.70;1.60;;;23.80;99.90;;;;;;5008446;28;20469;-64
2023/09/21 15:40:31;;;;;;;2.00;1.40;;;23.80;99.90;;;;;;5011959;28;20461;-64
2023/09/21 15:42:58;;;;;;;2.03;1.70;;;23.70;99.90;;;;;;5009471;28;20468;-64
2023/09/21 15:45:26;;;;;;;2.00;1.80;;;23.60;99.90;;;;;;5012205;28;20473;-65
2023/09/21 15:47:53;;;;;;;1.97;1.77;;;23.60;99.90;;;;;;5011420;28;20469;-64
2023/09/21 15:50:20;;;;;;;2.20;2.00;;;23.50;99.90;;;;;;5011882;28;20548;-64
2023/09/21 15:52:47;;;;;;;1.57;1.40;;;23.40;99.90;;;;;;5011166;28;20469;-64
2023/09/21 15:55:14;;;;;;;2.83;1.70;;;23.30;99.90;;;;;;5010852;28;20489;-64
2023/09/21 15:57:42;;;;;;;1.87;1.67;;;23.20;99.90;;;;;;5011266;28;20839;-64
2023/09/21 16:00:11;;;;;;;1.87;1.70;;;23.20;99.90;;;;;;5011696;28;20469;-64
2023/09/21 16:02:37;;;;;;;1.80;1.60;;;23.10;99.90;;;;;;5012445;28;20481;-64
2023/09/21 16:05:04;;;;;;;1.50;1.37;;;23.00;99.90;;;;;;5011110;28;20473;-64
2023/09/21 16:07:31;;;;;;;1.57;1.47;;;22.90;99.90;;;;;;5011097;28;20515;-64
2023/09/21 16:09:58;;;;;;;1.70;1.53;;;22.80;99.90;;;;;;5011438;28;20469;-64
2023/09/21 16:12:25;;;;;;;1.57;1.47;;;22.70;99.90;;;;;;5004729;28;20911;-64
2023/09/21 16:14:53;;;;;;;2.30;1.90;;;22.60;99.90;;;;;;5011384;28;20497;-64
2023/09/21 16:17:20;;;;;;;3.10;1.90;;;22.60;99.90;;;;;;5003850;28;20561;-64
2023/09/21 16:19:47;;;;;;;2.30;2.10;;;22.40;99.90;;;;;;5010945;28;20461;-64
2023/09/21 16:22:13;;;;;;;1.47;1.37;;;22.40;99.90;;;;;;5011434;28;20576;-64